createdAt,value
2022-08-09T00:00:00.095Z,2187
2022-08-09T00:00:54.611Z,2193
2022-08-09T00:01:55.402Z,2207
2022-08-09T00:02:52.537Z,2214
2022-08-09T00:04:05.801Z,2196
2022-08-09T00:05:03.623Z,2217
2022-08-09T00:06:22.931Z,2198
2022-08-09T00:07:10.821Z,2205
2022-08-09T00:08:53.359Z,2235
2022-08-09T00:09:54.840Z,2233
2022-08-09T00:10:58.195Z,2242
2022-08-09T00:12:03.089Z,2214
2022-08-09T00:12:55.127Z,2242
2022-08-09T00:13:52.608Z,2242
2022-08-09T00:14:57.679Z,2247
2022-08-09T00:16:02.114Z,2226
2022-08-09T00:16:52.524Z,2221
2022-08-09T00:18:07.548Z,2235
2022-08-09T00:18:52.459Z,2237
2022-08-09T00:19:52.702Z,2251
2022-08-09T00:20:52.532Z,2274
2022-08-09T00:21:55.845Z,2265
2022-08-09T00:22:54.936Z,2277
2022-08-09T00:23:54.876Z,2267
2022-08-09T00:24:52.530Z,2240
2022-08-09T00:27:52.490Z,2260
2022-08-09T00:28:53.298Z,2240
2022-08-09T00:30:25.594Z,2228
2022-08-09T00:30:52.517Z,2120
2022-08-09T00:32:52.530Z,1995
2022-08-09T00:33:52.444Z,1983
2022-08-09T00:35:52.536Z,1990
2022-08-09T00:36:52.419Z,2009
2022-08-09T00:37:54.749Z,2053
2022-08-09T00:38:57.660Z,2092
2022-08-09T00:40:01.952Z,2085
2022-08-09T00:40:58.130Z,2113
2022-08-09T00:44:15.597Z,2140
2022-08-09T00:44:18.699Z,2120
2022-08-09T00:44:25.713Z,2103
2022-08-09T00:44:54.983Z,2101
2022-08-09T00:45:54.024Z,2145
2022-08-09T00:46:56.941Z,2115
2022-08-09T00:47:55.508Z,2078
2022-08-09T00:48:55.996Z,2108
2022-08-09T00:49:55.137Z,2113
2022-08-09T00:50:57.563Z,2242
2022-08-09T00:51:56.186Z,2180
2022-08-09T00:52:55.274Z,2138
2022-08-09T00:53:52.638Z,2154
2022-08-09T00:54:52.451Z,2124
2022-08-09T00:56:04.642Z,2129
2022-08-09T00:56:54.932Z,2127
2022-08-09T00:57:52.469Z,2150
2022-08-09T00:58:57.656Z,2131
2022-08-09T00:59:52.900Z,2152
2022-08-09T01:00:52.582Z,2263
2022-08-09T01:01:52.516Z,2207
2022-08-09T01:02:52.410Z,2175
2022-08-09T01:03:52.432Z,2161
2022-08-09T01:04:55.476Z,2161
2022-08-09T01:05:54.547Z,2133
2022-08-09T01:06:54.831Z,2205
2022-08-09T01:08:00.113Z,2161
2022-08-09T01:08:52.418Z,2200
2022-08-09T01:10:01.664Z,2145
2022-08-09T01:10:55.368Z,2133
2022-08-09T01:11:53.217Z,2136
2022-08-09T01:12:52.623Z,2240
2022-08-09T01:13:58.701Z,2205
2022-08-09T01:14:54.749Z,2163
2022-08-09T01:15:52.983Z,2196
2022-08-09T01:16:54.949Z,2152
2022-08-09T01:17:52.435Z,2173
2022-08-09T01:19:02.505Z,2184
2022-08-09T01:20:01.882Z,2157
2022-08-09T01:20:52.394Z,2108
2022-08-09T01:21:53.791Z,2131
2022-08-09T01:22:54.892Z,2131
2022-08-09T01:24:03.284Z,2117
2022-08-09T01:24:54.758Z,2041
2022-08-09T01:25:52.440Z,1995
2022-08-09T01:26:52.775Z,1983
2022-08-09T01:27:52.421Z,1937
2022-08-09T01:28:54.588Z,1886
2022-08-09T01:29:56.571Z,1916
2022-08-09T01:30:55.310Z,1912
2022-08-09T01:32:29.869Z,1912
2022-08-09T01:32:55.002Z,1933
2022-08-09T01:33:56.898Z,1960
2022-08-09T01:34:59.745Z,1979
2022-08-09T01:35:52.414Z,1997
2022-08-09T01:36:52.429Z,1990
2022-08-09T01:38:09.389Z,1997
2022-08-09T01:39:52.457Z,2016
2022-08-09T01:41:56.021Z,2048
2022-08-09T01:42:54.829Z,2050
2022-08-09T01:43:54.654Z,2157
2022-08-09T01:44:52.405Z,2168
2022-08-09T01:45:58.103Z,2154
2022-08-09T01:46:53.008Z,2097
2022-08-09T01:47:54.776Z,2073
2022-08-09T01:48:54.574Z,2062
2022-08-09T01:49:54.684Z,2055
2022-08-09T01:50:55.213Z,2069
2022-08-09T01:51:55.396Z,2067
2022-08-09T01:52:52.410Z,2161
2022-08-09T01:53:58.225Z,2127
2022-08-09T01:54:52.421Z,2094
2022-08-09T01:55:52.436Z,2152
2022-08-09T01:56:54.975Z,2131
2022-08-09T01:57:57.849Z,2090
2022-08-09T01:58:52.385Z,2117
2022-08-09T02:00:00.098Z,2071
2022-08-09T02:00:54.958Z,2120
2022-08-09T02:01:59.142Z,2127
2022-08-09T02:02:52.379Z,2094
2022-08-09T02:03:54.601Z,2101
2022-08-09T02:04:55.466Z,2133
2022-08-09T02:06:06.617Z,2097
2022-08-09T02:08:36.066Z,2108
2022-08-09T02:08:58.870Z,2097
2022-08-09T02:10:01.259Z,2106
2022-08-09T02:10:59.744Z,2090
2022-08-09T02:11:52.337Z,2092
2022-08-09T02:13:01.517Z,2078
2022-08-09T02:14:06.435Z,2073
2022-08-09T02:14:52.337Z,2073
2022-08-09T02:16:07.760Z,2076
2022-08-09T02:16:53.063Z,2106
2022-08-09T02:18:13.137Z,2071
2022-08-09T02:19:54.583Z,1910
2022-08-09T02:20:52.380Z,1847
2022-08-09T02:21:55.331Z,1820
2022-08-09T02:22:52.369Z,1785
2022-08-09T02:23:57.889Z,1820
2022-08-09T02:24:52.378Z,1884
2022-08-09T02:25:55.694Z,1905
2022-08-09T02:26:52.347Z,1916
2022-08-09T02:28:03.623Z,1923
2022-08-09T02:28:52.368Z,1958
2022-08-09T02:29:52.351Z,1974
2022-08-09T02:30:54.597Z,1967
2022-08-09T02:31:54.968Z,1965
2022-08-09T02:32:52.361Z,1960
2022-08-09T02:34:06.375Z,1993
2022-08-09T02:34:55.946Z,1995
2022-08-09T02:36:12.670Z,1997
2022-08-09T02:37:00.937Z,1988
2022-08-09T02:37:54.740Z,2011
2022-08-09T02:38:55.001Z,2039
2022-08-09T02:39:55.037Z,1995
2022-08-09T02:41:52.359Z,2034
2022-08-09T02:42:52.305Z,1997
2022-08-09T02:43:55.574Z,1993
2022-08-09T02:44:59.799Z,2046
2022-08-09T02:45:52.336Z,2057
2022-08-09T02:46:55.056Z,2067
2022-08-09T02:48:12.289Z,2062
2022-08-09T02:48:54.634Z,2071
2022-08-09T02:49:55.480Z,2048
2022-08-09T02:50:56.299Z,2048
2022-08-09T02:51:54.610Z,2043
2022-08-09T02:52:55.397Z,2027
2022-08-09T02:54:54.928Z,2039
2022-08-09T02:55:58.630Z,2032
2022-08-09T02:56:57.943Z,2030
2022-08-09T02:58:00.719Z,2057
2022-08-09T02:58:55.152Z,2147
2022-08-09T03:00:21.500Z,2073
2022-08-09T03:00:57.850Z,2046
2022-08-09T03:02:05.506Z,2053
2022-08-09T03:03:00.078Z,2023
2022-08-09T03:04:18.313Z,2062
2022-08-09T03:05:52.338Z,2048
2022-08-09T03:06:55.286Z,2092
2022-08-09T03:07:55.384Z,2124
2022-08-09T03:08:54.609Z,2080
2022-08-09T03:09:54.210Z,2057
2022-08-09T03:10:54.815Z,2037
2022-08-09T03:12:11.023Z,2055
2022-08-09T03:12:54.478Z,2071
2022-08-09T03:14:01.337Z,2094
2022-08-09T03:14:52.272Z,2067
2022-08-09T03:16:52.436Z,2013
2022-08-09T03:17:57.793Z,1972
2022-08-09T03:18:53.062Z,1956
2022-08-09T03:20:00.794Z,1886
2022-08-09T03:20:54.743Z,1856
2022-08-09T03:21:57.709Z,1820
2022-08-09T03:23:15.037Z,1815
2022-08-09T03:24:03.689Z,1861
2022-08-09T03:25:21.461Z,1886
2022-08-09T03:26:03.644Z,1893
2022-08-09T03:27:55.322Z,1933
2022-08-09T03:28:57.388Z,1967
2022-08-09T03:30:54.687Z,2000
2022-08-09T03:31:59.825Z,1993
2022-08-09T03:32:52.276Z,1997
2022-08-09T03:33:56.453Z,1993
2022-08-09T03:34:55.152Z,2011
2022-08-09T03:36:12.737Z,1993
2022-08-09T03:36:59.836Z,1986
2022-08-09T03:38:28.522Z,1997
2022-08-09T03:38:52.311Z,2002
2022-08-09T03:39:56.561Z,2018
2022-08-09T03:40:52.272Z,2030
2022-08-09T03:42:06.041Z,2013
2022-08-09T03:42:54.599Z,2076
2022-08-09T03:44:10.157Z,2064
2022-08-09T03:44:52.270Z,2067
2022-08-09T03:46:03.127Z,2080
2022-08-09T03:46:52.261Z,2071
2022-08-09T03:48:52.293Z,2043
2022-08-09T03:49:58.377Z,2041
2022-08-09T03:51:00.899Z,2032
2022-08-09T03:51:58.489Z,2039
2022-08-09T03:52:52.277Z,2046
2022-08-09T03:53:54.316Z,2027
2022-08-09T03:54:54.618Z,2030
2022-08-09T03:55:54.972Z,2053
2022-08-09T03:56:53.382Z,2048
2022-08-09T03:58:06.459Z,2043
2022-08-09T03:58:54.618Z,2073
2022-08-09T04:00:00.642Z,2055
2022-08-09T04:00:55.211Z,2041
2022-08-09T04:01:52.223Z,2041
2022-08-09T04:02:54.685Z,2032
2022-08-09T04:04:01.278Z,2037
2022-08-09T04:04:52.272Z,2016
2022-08-09T04:05:57.626Z,2018
2022-08-09T04:06:55.070Z,2030
2022-08-09T04:07:57.226Z,2034
2022-08-09T04:08:55.189Z,2027
2022-08-09T04:09:54.540Z,2060
2022-08-09T04:10:54.348Z,2041
2022-08-09T04:11:52.219Z,2043
2022-08-09T04:12:52.273Z,2025
2022-08-09T04:16:19.267Z,2071
2022-08-09T04:16:52.194Z,2055
2022-08-09T04:17:57.732Z,2013
2022-08-09T04:19:01.369Z,2067
2022-08-09T04:19:56.165Z,2217
2022-08-09T04:20:52.192Z,2334
2022-08-09T04:21:52.180Z,2367
2022-08-09T04:22:57.682Z,2473
2022-08-09T04:23:57.511Z,2507
2022-08-09T04:24:54.320Z,2517
2022-08-09T04:25:54.669Z,2556
2022-08-09T04:26:59.492Z,2574
2022-08-09T04:27:54.961Z,2581
2022-08-09T04:28:59.733Z,2563
2022-08-09T04:29:54.622Z,2623
2022-08-09T04:30:54.976Z,2597
2022-08-09T04:31:54.821Z,2558
2022-08-09T04:32:57.702Z,2544
2022-08-09T04:34:05.721Z,2528
2022-08-09T04:34:54.335Z,2519
2022-08-09T04:35:59.457Z,2519
2022-08-09T04:36:52.164Z,2501
2022-08-09T04:37:54.442Z,2602
2022-08-09T04:38:54.908Z,2549
2022-08-09T04:39:54.618Z,2547
2022-08-09T04:40:56.179Z,2526
2022-08-09T04:41:52.198Z,2517
2022-08-09T04:42:54.500Z,2549
2022-08-09T04:44:07.019Z,2514
2022-08-09T04:44:54.727Z,2507
2022-08-09T04:45:53.585Z,2503
2022-08-09T04:47:04.533Z,2461
2022-08-09T04:48:00.209Z,2434
2022-08-09T04:48:58.306Z,2443
2022-08-09T04:49:55.714Z,2438
2022-08-09T04:50:52.146Z,2397
2022-08-09T04:51:55.121Z,2401
2022-08-09T04:52:52.159Z,2450
2022-08-09T04:53:58.463Z,2482
2022-08-09T04:55:58.993Z,2591
2022-08-09T04:56:54.258Z,2602
2022-08-09T04:57:58.854Z,2618
2022-08-09T04:58:55.320Z,2644
2022-08-09T04:59:52.221Z,2658
2022-08-09T05:00:57.491Z,2639
2022-08-09T05:01:52.189Z,2664
2022-08-09T05:02:54.387Z,2623
2022-08-09T05:03:58.706Z,2630
2022-08-09T05:04:55.512Z,2632
2022-08-09T05:06:06.721Z,2611
2022-08-09T05:06:54.332Z,2618
2022-08-09T05:07:56.233Z,2621
2022-08-09T05:08:52.186Z,2632
2022-08-09T05:09:54.537Z,2648
2022-08-09T05:10:52.220Z,2681
2022-08-09T05:11:52.225Z,2660
2022-08-09T05:12:54.573Z,2630
2022-08-09T05:13:52.206Z,2630
2022-08-09T05:14:52.210Z,2611
2022-08-09T05:16:00.542Z,2618
2022-08-09T05:16:59.728Z,2607
2022-08-09T05:18:38.483Z,2593
2022-08-09T05:18:59.858Z,2616
2022-08-09T05:19:56.733Z,2618
2022-08-09T05:20:52.243Z,2616
2022-08-09T05:21:52.419Z,2611
2022-08-09T05:23:54.879Z,2611
2022-08-09T05:24:00.403Z,2604
2022-08-09T05:24:57.258Z,2618
2022-08-09T05:25:52.157Z,2651
2022-08-09T05:26:52.177Z,2676
2022-08-09T05:27:55.476Z,2715
2022-08-09T05:28:52.288Z,2724
2022-08-09T05:29:54.388Z,2727
2022-08-09T05:30:52.263Z,2718
2022-08-09T05:31:57.271Z,2718
2022-08-09T05:32:53.402Z,2727
2022-08-09T05:33:52.116Z,2718
2022-08-09T05:34:52.130Z,2639
2022-08-09T05:35:52.258Z,2641
2022-08-09T05:36:52.181Z,2621
2022-08-09T05:37:53.486Z,2692
2022-08-09T05:38:52.140Z,2731
2022-08-09T05:39:57.371Z,2745
2022-08-09T05:40:54.224Z,2778
2022-08-09T05:41:52.190Z,2812
2022-08-09T05:42:54.838Z,2828
2022-08-09T05:43:52.160Z,2863
2022-08-09T05:44:52.395Z,2877
2022-08-09T05:45:56.849Z,2870
2022-08-09T05:46:52.192Z,2891
2022-08-09T05:48:01.489Z,2891
2022-08-09T05:48:58.887Z,2893
2022-08-09T05:50:30.834Z,2909
2022-08-09T05:51:16.496Z,2916
2022-08-09T05:52:54.035Z,2849
2022-08-09T05:53:57.429Z,2828
2022-08-09T05:54:52.131Z,2840
2022-08-09T05:55:53.053Z,2861
2022-08-09T05:56:54.972Z,2872
2022-08-09T05:57:57.484Z,2891
2022-08-09T05:58:58.299Z,2900
2022-08-09T05:59:52.163Z,2898
2022-08-09T06:00:52.187Z,2891
2022-08-09T06:01:52.121Z,2898
2022-08-09T06:02:54.688Z,2895
2022-08-09T06:04:55.793Z,2898
2022-08-09T06:06:04.377Z,2870
2022-08-09T06:06:59.432Z,2884
2022-08-09T06:08:08.086Z,2902
2022-08-09T06:08:52.783Z,2939
2022-08-09T06:10:02.345Z,2921
2022-08-09T06:10:52.108Z,2909
2022-08-09T06:11:57.825Z,2879
2022-08-09T06:13:18.170Z,2854
2022-08-09T06:13:54.522Z,2854
2022-08-09T06:14:53.274Z,2849
2022-08-09T06:16:54.761Z,2819
2022-08-09T06:17:54.567Z,2784
2022-08-09T06:19:27.833Z,2817
2022-08-09T06:19:52.100Z,2831
2022-08-09T06:21:07.493Z,2838
2022-08-09T06:21:58.649Z,2805
2022-08-09T06:22:54.505Z,2831
2022-08-09T06:23:55.716Z,2805
2022-08-09T06:24:52.167Z,2775
2022-08-09T06:25:55.150Z,2775
2022-08-09T06:27:54.237Z,2761
2022-08-09T06:28:59.552Z,2759
2022-08-09T06:30:54.186Z,2773
2022-08-09T06:32:08.990Z,2808
2022-08-09T06:32:59.558Z,2824
2022-08-09T06:33:53.293Z,2812
2022-08-09T06:34:54.719Z,2838
2022-08-09T06:35:57.639Z,2879
2022-08-09T06:36:58.894Z,2886
2022-08-09T06:38:05.389Z,2854
2022-08-09T06:38:57.275Z,2872
2022-08-09T06:40:00.176Z,2881
2022-08-09T06:40:55.021Z,2877
2022-08-09T06:42:55.060Z,2921
2022-08-09T06:46:06.057Z,2978
2022-08-09T06:46:55.395Z,2969
2022-08-09T06:48:00.613Z,2969
2022-08-09T06:48:57.428Z,2965
2022-08-09T06:50:14.730Z,3008
2022-08-09T06:50:52.115Z,3031
2022-08-09T06:52:52.075Z,3064
2022-08-09T06:53:52.112Z,3078
2022-08-09T06:54:52.069Z,3048
2022-08-09T06:55:52.025Z,3143
2022-08-09T06:56:52.031Z,3098
2022-08-09T06:58:02.548Z,3103
2022-08-09T07:00:54.636Z,3057
2022-08-09T07:00:56.019Z,3068
2022-08-09T07:00:58.607Z,3064
2022-08-09T07:01:59.650Z,3066
2022-08-09T07:03:05.338Z,3029
2022-08-09T07:03:53.971Z,3020
2022-08-09T07:04:54.147Z,2951
2022-08-09T07:06:03.679Z,2960
2022-08-09T07:06:53.420Z,2921
2022-08-09T07:08:00.603Z,2918
2022-08-09T07:08:54.945Z,2946
2022-08-09T07:10:54.824Z,2886
2022-08-09T07:11:54.631Z,2872
2022-08-09T07:12:57.426Z,2895
2022-08-09T07:14:04.813Z,2868
2022-08-09T07:14:53.441Z,2900
2022-08-09T07:16:36.090Z,2923
2022-08-09T07:16:57.729Z,2955
2022-08-09T07:17:56.426Z,2981
2022-08-09T07:18:54.415Z,2969
2022-08-09T07:19:55.507Z,2971
2022-08-09T07:20:52.113Z,2974
2022-08-09T07:21:57.555Z,2974
2022-08-09T07:22:54.802Z,3018
2022-08-09T07:23:57.844Z,3029
2022-08-09T07:24:52.181Z,3059
2022-08-09T07:26:52.034Z,3143
2022-08-09T07:27:55.609Z,3123
2022-08-09T07:29:08.611Z,3198
2022-08-09T07:29:57.080Z,3229
2022-08-09T07:30:54.639Z,3264
2022-08-09T07:31:52.011Z,3264
2022-08-09T07:32:51.997Z,3218
2022-08-09T07:33:52.754Z,3274
2022-08-09T07:35:00.573Z,3249
2022-08-09T07:35:53.527Z,3203
2022-08-09T07:36:52.840Z,3213
2022-08-09T07:37:52.019Z,3203
2022-08-09T07:39:00.586Z,3143
2022-08-09T07:39:52.099Z,3148
2022-08-09T07:41:08.241Z,3118
2022-08-09T07:41:52.054Z,3143
2022-08-09T07:42:59.348Z,3098
2022-08-09T07:43:56.470Z,3143
2022-08-09T07:44:58.419Z,3173
2022-08-09T07:45:52.023Z,3198
2022-08-09T07:46:52.142Z,3203
2022-08-09T07:48:01.419Z,3244
2022-08-09T07:48:59.387Z,3218
2022-08-09T07:50:07.772Z,3173
2022-08-09T07:50:52.789Z,3143
2022-08-09T07:52:16.710Z,3118
2022-08-09T07:52:54.088Z,3025
2022-08-09T07:54:05.853Z,3008
2022-08-09T07:54:55.041Z,3004
2022-08-09T07:56:02.924Z,2962
2022-08-09T07:56:52.015Z,3020
2022-08-09T07:57:54.375Z,3025
2022-08-09T07:59:03.704Z,3071
2022-08-09T08:00:03.003Z,3133
2022-08-09T08:00:58.869Z,3208
2022-08-09T08:01:53.078Z,3264
2022-08-09T08:02:54.180Z,3269
2022-08-09T08:04:54.466Z,3374
2022-08-09T08:05:58.050Z,3399
2022-08-09T08:06:56.348Z,3379
2022-08-09T08:08:43.661Z,3414
2022-08-09T08:09:03.958Z,3429
2022-08-09T08:10:04.594Z,3424
2022-08-09T08:11:15.346Z,3439
2022-08-09T08:12:24.095Z,3414
2022-08-09T08:12:51.961Z,3399
2022-08-09T08:13:57.129Z,3389
2022-08-09T08:14:51.959Z,3379
2022-08-09T08:15:54.915Z,3384
2022-08-09T08:17:07.570Z,3344
2022-08-09T08:17:55.597Z,3339
2022-08-09T08:18:54.573Z,3254
2022-08-09T08:19:51.950Z,3299
2022-08-09T08:20:52.077Z,3314
2022-08-09T08:21:52.628Z,3289
2022-08-09T08:22:58.554Z,3128
2022-08-09T08:23:55.639Z,3088
2022-08-09T08:24:52.066Z,3055
2022-08-09T08:26:08.031Z,3045
2022-08-09T08:26:55.701Z,3113
2022-08-09T08:27:54.481Z,3118
2022-08-09T08:28:54.825Z,3103
2022-08-09T08:29:54.098Z,3083
2022-08-09T08:30:53.968Z,3059
2022-08-09T08:32:04.302Z,3061
2022-08-09T08:32:57.929Z,3061
2022-08-09T08:33:56.125Z,3153
2022-08-09T08:34:58.956Z,3198
2022-08-09T08:35:59.382Z,3274
2022-08-09T08:36:54.884Z,3229
2022-08-09T08:38:02.071Z,3198
2022-08-09T08:38:53.120Z,3163
2022-08-09T08:39:55.000Z,3173
2022-08-09T08:40:51.956Z,3128
2022-08-09T08:41:54.036Z,3188
2022-08-09T08:43:00.434Z,3188
2022-08-09T08:43:56.383Z,3183
2022-08-09T08:44:52.053Z,3213
2022-08-09T08:46:32.420Z,3168
2022-08-09T08:47:03.190Z,3108
2022-08-09T08:47:58.950Z,3128
2022-08-09T08:49:51.925Z,3036
2022-08-09T08:50:59.013Z,3015
2022-08-09T08:52:00.297Z,2988
2022-08-09T08:52:59.525Z,2951
2022-08-09T08:54:03.665Z,2923
2022-08-09T08:54:59.296Z,2932
2022-08-09T08:55:52.465Z,2983
2022-08-09T08:56:54.070Z,3018
2022-08-09T08:57:56.445Z,3006
2022-08-09T08:58:59.199Z,3004
2022-08-09T08:59:59.241Z,3045
2022-08-09T09:00:54.271Z,3022
2022-08-09T09:01:57.047Z,3055
2022-08-09T09:02:52.898Z,3059
2022-08-09T09:03:52.000Z,3098
2022-08-09T09:04:53.121Z,3064
2022-08-09T09:07:09.394Z,3071
2022-08-09T09:07:51.882Z,3098
2022-08-09T09:08:59.436Z,3052
2022-08-09T09:10:01.940Z,3158
2022-08-09T09:10:51.950Z,3055
2022-08-09T09:11:58.166Z,2999
2022-08-09T09:12:51.955Z,2951
2022-08-09T09:13:58.615Z,2930
2022-08-09T09:14:54.743Z,2928
2022-08-09T09:15:54.121Z,2955
2022-08-09T09:16:51.962Z,2969
2022-08-09T09:17:52.884Z,2976
2022-08-09T09:19:02.376Z,2985
2022-08-09T09:19:54.544Z,3001
2022-08-09T09:20:51.983Z,3011
2022-08-09T09:21:54.036Z,3038
2022-08-09T09:23:02.080Z,3022
2022-08-09T09:23:59.330Z,3045
2022-08-09T09:24:59.097Z,3050
2022-08-09T09:26:51.853Z,3022
2022-08-09T09:28:06.017Z,3015
2022-08-09T09:29:03.406Z,3029
2022-08-09T09:30:16.550Z,2990
2022-08-09T09:30:54.501Z,3006
2022-08-09T09:32:06.221Z,2978
2022-08-09T09:32:51.862Z,2978
2022-08-09T09:33:56.872Z,2971
2022-08-09T09:34:51.867Z,2974
2022-08-09T09:35:53.118Z,2976
2022-08-09T09:36:54.249Z,2969
2022-08-09T09:37:54.156Z,3018
2022-08-09T09:38:51.884Z,3050
2022-08-09T09:39:56.811Z,3036
2022-08-09T09:40:52.296Z,2985
2022-08-09T09:41:51.900Z,2958
2022-08-09T09:42:51.929Z,2944
2022-08-09T09:44:12.288Z,2909
2022-08-09T09:44:54.905Z,2935
2022-08-09T09:46:41.816Z,2990
2022-08-09T09:46:54.031Z,2995
2022-08-09T09:48:54.033Z,3025
2022-08-09T09:50:14.082Z,3055
2022-08-09T09:50:52.614Z,3061
2022-08-09T09:51:54.255Z,3083
2022-08-09T09:52:53.676Z,3138
2022-08-09T09:54:02.120Z,3138
2022-08-09T09:54:57.388Z,3118
2022-08-09T09:56:03.839Z,3133
2022-08-09T09:56:53.282Z,3138
2022-08-09T09:58:02.767Z,3153
2022-08-09T09:59:54.102Z,3168
2022-08-09T10:01:07.041Z,3153
2022-08-09T10:01:51.857Z,3259
2022-08-09T10:02:51.868Z,3264
2022-08-09T10:03:58.044Z,3249
2022-08-09T10:04:51.865Z,3264
2022-08-09T10:06:03.623Z,3193
2022-08-09T10:06:54.306Z,3223
2022-08-09T10:08:01.202Z,3113
2022-08-09T10:08:57.903Z,3057
2022-08-09T10:09:54.825Z,3057
2022-08-09T10:10:51.872Z,3004
2022-08-09T10:11:59.805Z,2999
2022-08-09T10:12:55.246Z,2995
2022-08-09T10:13:54.746Z,3027
2022-08-09T10:14:51.970Z,3036
2022-08-09T10:16:54.387Z,3041
2022-08-09T10:17:40.473Z,3093
2022-08-09T10:17:56.647Z,3064
2022-08-09T10:18:54.441Z,2999
2022-08-09T10:19:52.021Z,3015
2022-08-09T10:20:54.446Z,3034
2022-08-09T10:21:51.789Z,3088
2022-08-09T10:22:59.949Z,3123
2022-08-09T10:23:53.914Z,3259
2022-08-09T10:24:54.266Z,3229
2022-08-09T10:26:06.687Z,3163
2022-08-09T10:26:51.815Z,3178
2022-08-09T10:27:57.954Z,3239
2022-08-09T10:29:22.736Z,3208
2022-08-09T10:30:43.666Z,3249
2022-08-09T10:32:52.089Z,3098
2022-08-09T10:34:09.907Z,3025
2022-08-09T10:34:54.266Z,3050
2022-08-09T10:36:11.547Z,3045
2022-08-09T10:36:51.818Z,3018
2022-08-09T10:37:51.935Z,2988
2022-08-09T10:38:57.202Z,2962
2022-08-09T10:39:51.831Z,2969
2022-08-09T10:40:54.061Z,2965
2022-08-09T10:41:54.190Z,2967
2022-08-09T10:44:01.420Z,2909
2022-08-09T10:44:51.849Z,2946
2022-08-09T10:46:00.149Z,2958
2022-08-09T10:46:57.304Z,2974
2022-08-09T10:48:52.330Z,2992
2022-08-09T10:49:57.014Z,2997
2022-08-09T10:50:54.868Z,3020
2022-08-09T10:51:52.816Z,3048
2022-08-09T10:52:51.787Z,3041
2022-08-09T10:53:55.011Z,3013
2022-08-09T10:54:54.789Z,3034
2022-08-09T10:55:58.477Z,3059
2022-08-09T10:56:54.025Z,3038
2022-08-09T10:57:55.911Z,3041
2022-08-09T10:58:54.806Z,3052
2022-08-09T11:03:03.105Z,3059
2022-08-09T11:03:15.241Z,3055
2022-08-09T11:03:15.493Z,3083
2022-08-09T11:03:53.752Z,3173
2022-08-09T11:04:55.925Z,3208
2022-08-09T11:06:00.458Z,3284
2022-08-09T11:06:56.995Z,3479
2022-08-09T11:07:54.982Z,3559
2022-08-09T11:08:58.198Z,3715
2022-08-09T11:09:59.785Z,3745
2022-08-09T11:11:09.714Z,3715
2022-08-09T11:11:52.121Z,3911
2022-08-09T11:12:54.472Z,3906
2022-08-09T11:13:54.274Z,3885
2022-08-09T11:14:51.784Z,3906
2022-08-09T11:16:04.879Z,3780
2022-08-09T11:16:52.068Z,3765
2022-08-09T11:18:03.076Z,3720
2022-08-09T11:18:51.746Z,3695
2022-08-09T11:20:11.530Z,3640
2022-08-09T11:21:57.149Z,3509
2022-08-09T11:22:57.333Z,3414
2022-08-09T11:23:53.771Z,3274
2022-08-09T11:24:54.597Z,3208
2022-08-09T11:26:54.947Z,3078
2022-08-09T11:28:05.589Z,3133
2022-08-09T11:28:59.206Z,3128
2022-08-09T11:30:04.485Z,3163
2022-08-09T11:31:54.907Z,3244
2022-08-09T11:32:51.792Z,3213
2022-08-09T11:33:51.740Z,3284
2022-08-09T11:34:54.734Z,3359
2022-08-09T11:35:54.962Z,3429
2022-08-09T11:36:51.728Z,3519
2022-08-09T11:37:54.426Z,3524
2022-08-09T11:38:51.752Z,3494
2022-08-09T11:40:00.682Z,3474
2022-08-09T11:40:52.819Z,3429
2022-08-09T11:41:58.547Z,3479
2022-08-09T11:42:51.713Z,3414
2022-08-09T11:43:56.983Z,3374
2022-08-09T11:44:51.701Z,3374
2022-08-09T11:45:51.808Z,3389
2022-08-09T11:46:51.710Z,3449
2022-08-09T11:47:53.952Z,3419
2022-08-09T11:48:51.724Z,3414
2022-08-09T11:50:52.954Z,3439
2022-08-09T11:50:55.020Z,3444
2022-08-09T11:52:56.628Z,3374
2022-08-09T11:53:03.181Z,3334
2022-08-09T11:54:01.682Z,3319
2022-08-09T11:54:51.726Z,3264
2022-08-09T11:56:02.235Z,3239
2022-08-09T11:56:54.643Z,3329
2022-08-09T11:58:53.908Z,3289
2022-08-09T11:59:54.319Z,3329
2022-08-09T12:00:52.912Z,3314
2022-08-09T12:02:16.860Z,3344
2022-08-09T12:02:53.404Z,3299
2022-08-09T12:03:58.120Z,3289
2022-08-09T12:04:58.120Z,3244
2022-08-09T12:05:51.810Z,3269
2022-08-09T12:06:55.533Z,3294
2022-08-09T12:07:52.745Z,3294
2022-08-09T12:08:54.006Z,3274
2022-08-09T12:09:53.714Z,3359
2022-08-09T12:12:03.492Z,3519
2022-08-09T12:12:54.342Z,3554
2022-08-09T12:14:09.154Z,3534
2022-08-09T12:15:49.582Z,3519
2022-08-09T12:15:52.216Z,3590
2022-08-09T12:17:54.104Z,3695
2022-08-09T12:18:54.657Z,3675
2022-08-09T12:19:59.748Z,3705
2022-08-09T12:20:51.702Z,3695
2022-08-09T12:21:51.787Z,3730
2022-08-09T12:22:51.730Z,3765
2022-08-09T12:24:09.445Z,3740
2022-08-09T12:24:51.711Z,3700
2022-08-09T12:25:51.692Z,3645
2022-08-09T12:28:58.771Z,3575
2022-08-09T12:29:13.476Z,3580
2022-08-09T12:29:33.070Z,3514
2022-08-09T12:30:51.710Z,3374
2022-08-09T12:32:02.096Z,3324
2022-08-09T12:32:51.710Z,3239
2022-08-09T12:33:59.054Z,3178
2022-08-09T12:34:51.676Z,3148
2022-08-09T12:35:51.766Z,3093
2022-08-09T12:36:58.959Z,3043
2022-08-09T12:38:54.221Z,2976
2022-08-09T12:39:51.744Z,2921
2022-08-09T12:40:54.457Z,2898
2022-08-09T12:41:51.684Z,2870
2022-08-09T12:42:54.077Z,2831
2022-08-09T12:44:06.801Z,2847
2022-08-09T12:44:52.471Z,2856
2022-08-09T12:46:00.745Z,2875
2022-08-09T12:47:51.671Z,2932
2022-08-09T12:48:51.668Z,2983
2022-08-09T12:49:53.079Z,2999
2022-08-09T12:50:51.703Z,3041
2022-08-09T12:52:02.695Z,3093
2022-08-09T12:53:08.974Z,3193
2022-08-09T12:53:52.987Z,3254
2022-08-09T12:56:10.654Z,3344
2022-08-09T12:56:12.272Z,3279
2022-08-09T12:56:53.931Z,3339
2022-08-09T12:57:51.635Z,3324
2022-08-09T12:59:06.748Z,3369
2022-08-09T13:00:03.910Z,3409
2022-08-09T13:00:54.082Z,3404
2022-08-09T13:01:54.725Z,3349
2022-08-09T13:02:53.413Z,3279
2022-08-09T13:03:53.701Z,3274
2022-08-09T13:04:53.871Z,3239
2022-08-09T13:06:13.504Z,3198
2022-08-09T13:06:51.683Z,3103
2022-08-09T13:07:53.944Z,3045
2022-08-09T13:08:54.541Z,3011
2022-08-09T13:09:53.039Z,2990
2022-08-09T13:10:53.697Z,2971
2022-08-09T13:12:02.169Z,2925
2022-08-09T13:13:11.451Z,2893
2022-08-09T13:14:40.853Z,2888
2022-08-09T13:14:54.429Z,2840
2022-08-09T13:15:51.721Z,2773
2022-08-09T13:16:51.619Z,2699
2022-08-09T13:18:04.764Z,2692
2022-08-09T13:18:53.562Z,2715
2022-08-09T13:22:33.450Z,2743
2022-08-09T13:22:35.668Z,2759
2022-08-09T13:23:05.802Z,2789
2022-08-09T13:24:16.798Z,2831
2022-08-09T13:24:54.858Z,2840
2022-08-09T13:25:56.041Z,2893
2022-08-09T13:26:51.611Z,2916
2022-08-09T13:27:55.700Z,2946
2022-08-09T13:28:54.655Z,2948
2022-08-09T13:30:03.570Z,2923
2022-08-09T13:32:12.494Z,2916
2022-08-09T13:32:17.101Z,2932
2022-08-09T13:33:00.130Z,2930
2022-08-09T13:33:54.516Z,2923
2022-08-09T13:34:52.098Z,2914
2022-08-09T13:36:38.221Z,2898
2022-08-09T13:36:56.892Z,2914
2022-08-09T13:37:52.953Z,2911
2022-08-09T13:38:56.636Z,2881
2022-08-09T13:41:46.966Z,2803
2022-08-09T13:41:53.918Z,2761
2022-08-09T13:42:00.807Z,2773
2022-08-09T13:42:51.651Z,2729
2022-08-09T13:43:56.913Z,2694
2022-08-09T13:44:56.965Z,2630
2022-08-09T13:46:44.753Z,2600
2022-08-09T13:47:26.560Z,2570
2022-08-09T13:47:58.388Z,2561
2022-08-09T13:48:53.970Z,2547
2022-08-09T13:49:57.880Z,2531
2022-08-09T13:50:53.695Z,2526
2022-08-09T13:52:00.526Z,2505
2022-08-09T13:52:51.581Z,2514
2022-08-09T13:53:56.712Z,2498
2022-08-09T13:55:02.185Z,2484
2022-08-09T13:55:54.530Z,2471
2022-08-09T13:56:54.399Z,2461
2022-08-09T13:57:58.293Z,2457
2022-08-09T13:58:53.948Z,2445
2022-08-09T13:59:51.576Z,2420
2022-08-09T14:00:53.000Z,2417
2022-08-09T14:01:56.252Z,2406
2022-08-09T14:03:02.959Z,2408
2022-08-09T14:04:03.610Z,2401
2022-08-09T14:05:00.106Z,2427
2022-08-09T14:05:59.259Z,2447
2022-08-09T14:06:51.580Z,2461
2022-08-09T14:07:54.092Z,2452
2022-08-09T14:08:51.604Z,2494